createdAt,value
2022-09-22T00:01:18.945Z,9.02
2022-09-22T00:03:53.690Z,8.94
2022-09-22T00:06:23.926Z,8.81
2022-09-22T00:08:54.414Z,8.77
2022-09-22T00:11:28.924Z,8.65
2022-09-22T00:14:02.531Z,8.96
2022-09-22T00:16:33.526Z,8.68
2022-09-22T00:19:01.403Z,8.85
2022-09-22T00:21:30.904Z,9.82
2022-09-22T00:24:02.750Z,9.92
2022-09-22T00:26:31.325Z,9.11
2022-09-22T00:28:59.595Z,9.50
2022-09-22T00:31:27.632Z,8.80
2022-09-22T00:33:56.049Z,8.68
2022-09-22T00:36:25.836Z,10.03
2022-09-22T00:38:56.850Z,10.49
2022-09-22T00:41:31.032Z,10.14
2022-09-22T00:44:26.520Z,10.60
2022-09-22T00:46:56.093Z,10.69
2022-09-22T00:49:29.822Z,9.60
2022-09-22T00:51:57.611Z,9.11
2022-09-22T00:54:25.157Z,9.31
2022-09-22T00:57:05.223Z,9.25
2022-09-22T00:59:33.125Z,9.55
2022-09-22T01:02:00.542Z,10.37
2022-09-22T01:04:29.132Z,10.09
2022-09-22T01:06:58.006Z,10.38
2022-09-22T01:09:25.996Z,9.56
2022-09-22T01:11:53.505Z,10.65
2022-09-22T01:14:38.111Z,9.82
2022-09-22T01:17:44.700Z,10.38
2022-09-22T01:20:27.271Z,9.33
2022-09-22T01:23:32.023Z,8.90
2022-09-22T01:26:27.802Z,9.03
2022-09-22T01:29:23.510Z,8.66
2022-09-22T01:32:01.370Z,8.73
2022-09-22T01:34:40.524Z,8.59
2022-09-22T01:37:12.318Z,9.59
2022-09-22T01:39:46.163Z,9.55
2022-09-22T01:42:35.683Z,9.99
2022-09-22T01:45:12.148Z,10.27
2022-09-22T01:47:47.530Z,10.08
2022-09-22T01:50:28.232Z,9.77
2022-09-22T01:52:59.486Z,9.73
2022-09-22T01:55:38.666Z,9.69
2022-09-22T01:58:13.702Z,8.77
2022-09-22T02:00:44.676Z,8.96
2022-09-22T02:03:25.772Z,8.63
2022-09-22T02:06:00.680Z,8.15
2022-09-22T02:08:33.514Z,8.31
2022-09-22T02:11:04.291Z,8.43
2022-09-22T02:13:31.911Z,8.17
2022-09-22T02:16:02.356Z,8.25
2022-09-22T02:18:39.707Z,8.63
2022-09-22T02:21:07.348Z,9.15
2022-09-22T02:23:35.923Z,8.83
2022-09-22T02:26:05.073Z,8.77
2022-09-22T02:28:33.758Z,9.16
2022-09-22T02:31:19.495Z,9.48
2022-09-22T02:33:48.795Z,9.88
2022-09-22T02:36:43.553Z,10.17
2022-09-22T02:39:19.511Z,9.69
2022-09-22T02:42:18.018Z,10.01
2022-09-22T02:44:52.205Z,8.89
2022-09-22T02:47:25.547Z,8.28
2022-09-22T02:49:55.206Z,8.66
2022-09-22T02:52:24.282Z,7.86
2022-09-22T02:54:54.028Z,8.01
2022-09-22T02:57:21.842Z,9.38
2022-09-22T02:59:49.703Z,8.37
2022-09-22T03:02:17.167Z,8.87
2022-09-22T03:04:44.802Z,8.73
2022-09-22T03:07:12.219Z,8.60
2022-09-22T03:09:39.836Z,8.39
2022-09-22T03:12:07.586Z,8.40
2022-09-22T03:14:35.163Z,8.26
2022-09-22T03:17:02.523Z,8.46
2022-09-22T03:19:30.304Z,8.30
2022-09-22T03:21:57.737Z,8.08
2022-09-22T03:24:25.190Z,7.99
2022-09-22T03:26:52.869Z,8.68
2022-09-22T03:29:20.236Z,8.37
2022-09-22T03:31:47.795Z,8.72
2022-09-22T03:34:15.590Z,8.23
2022-09-22T03:36:43.091Z,8.04
2022-09-22T03:39:10.445Z,7.99
2022-09-22T03:41:38.136Z,7.87
2022-09-22T03:44:05.925Z,7.65
2022-09-22T03:46:34.580Z,7.48
2022-09-22T03:49:03.356Z,7.97
2022-09-22T03:51:33.098Z,8.50
2022-09-22T03:54:00.784Z,8.46
2022-09-22T03:56:28.452Z,7.94
2022-09-22T03:58:56.164Z,7.72
2022-09-22T04:01:23.680Z,8.38
2022-09-22T04:03:51.331Z,8.36
2022-09-22T04:06:19.709Z,8.00
2022-09-22T04:08:47.108Z,8.26
2022-09-22T04:11:14.750Z,7.89
2022-09-22T04:13:46.193Z,7.46
2022-09-22T04:16:14.202Z,7.56
2022-09-22T04:18:41.974Z,7.35
2022-09-22T04:21:09.454Z,7.15
2022-09-22T04:23:36.891Z,7.15
2022-09-22T04:26:05.112Z,7.10
2022-09-22T04:28:32.722Z,7.42
2022-09-22T04:31:00.410Z,7.29
2022-09-22T04:33:28.256Z,7.14
2022-09-22T04:35:55.731Z,7.25
2022-09-22T04:38:23.078Z,7.44
2022-09-22T04:40:52.880Z,7.34
2022-09-22T04:43:20.372Z,7.09
2022-09-22T04:45:48.985Z,7.38
2022-09-22T04:48:17.128Z,8.01
2022-09-22T04:50:48.137Z,7.58
2022-09-22T04:53:15.943Z,7.56
2022-09-22T04:55:43.699Z,7.71
2022-09-22T04:58:11.469Z,7.47
2022-09-22T05:00:39.154Z,7.58
2022-09-22T05:03:11.036Z,7.78
2022-09-22T05:05:38.704Z,7.46
2022-09-22T05:08:06.974Z,7.39
2022-09-22T05:10:35.825Z,8.61
2022-09-22T05:13:03.882Z,8.39
2022-09-22T05:15:33.180Z,7.87
2022-09-22T05:18:00.908Z,7.62
2022-09-22T05:20:28.453Z,7.49
2022-09-22T05:22:55.957Z,7.51
2022-09-22T05:25:23.701Z,7.70
2022-09-22T05:27:53.330Z,7.49
2022-09-22T05:30:25.546Z,8.71
2022-09-22T05:32:53.398Z,9.22
2022-09-22T05:35:23.263Z,7.85
2022-09-22T05:37:52.029Z,7.58
2022-09-22T05:40:20.788Z,7.76
2022-09-22T05:42:53.866Z,8.30
2022-09-22T05:45:22.075Z,9.40
2022-09-22T05:47:49.750Z,9.78
2022-09-22T05:50:18.483Z,8.67
2022-09-22T05:52:46.169Z,8.06
2022-09-22T05:55:13.783Z,9.27
2022-09-22T05:57:41.721Z,9.79
2022-09-22T06:00:10.697Z,9.23
2022-09-22T06:02:39.621Z,8.68
2022-09-22T06:05:07.571Z,8.83
2022-09-22T06:07:34.976Z,9.03
2022-09-22T06:10:02.492Z,8.98
2022-09-22T06:12:30.214Z,9.09
2022-09-22T06:14:57.683Z,9.10
2022-09-22T06:17:25.050Z,10.50
2022-09-22T06:19:52.750Z,10.80
2022-09-22T06:22:20.453Z,10.23
2022-09-22T06:24:48.818Z,10.48
2022-09-22T06:27:16.680Z,10.77
2022-09-22T06:29:44.143Z,9.37
2022-09-22T06:32:11.513Z,9.24
2022-09-22T06:34:39.238Z,10.39
2022-09-22T06:37:09.429Z,10.63
2022-09-22T06:39:37.844Z,10.41
2022-09-22T06:42:06.225Z,10.23
2022-09-22T06:44:33.949Z,10.22
2022-09-22T06:47:05.398Z,10.49
2022-09-22T06:49:33.204Z,10.56
2022-09-22T06:52:00.694Z,10.95
2022-09-22T06:54:28.136Z,10.67
2022-09-22T06:56:55.817Z,10.36
2022-09-22T06:59:23.326Z,10.68
2022-09-22T07:01:50.825Z,11.20
2022-09-22T07:04:20.173Z,10.82
2022-09-22T07:06:50.407Z,10.65
2022-09-22T07:09:18.066Z,10.99
2022-09-22T07:11:47.408Z,11.49
2022-09-22T07:14:15.128Z,11.29
2022-09-22T07:16:44.423Z,10.89
2022-09-22T07:19:12.038Z,11.41
2022-09-22T07:21:40.505Z,11.75
2022-09-22T07:24:08.833Z,12.55
2022-09-22T07:26:39.210Z,11.56
2022-09-22T07:29:11.615Z,11.91
2022-09-22T07:31:40.508Z,11.23
2022-09-22T07:34:09.633Z,12.11
2022-09-22T07:36:37.982Z,12.39
2022-09-22T07:39:07.957Z,11.69
2022-09-22T07:41:41.811Z,12.45
2022-09-22T07:44:29.952Z,11.69
2022-09-22T07:46:57.760Z,12.03
2022-09-22T07:49:25.656Z,12.33
2022-09-22T07:51:55.066Z,12.79
2022-09-22T07:54:23.577Z,12.18
2022-09-22T07:56:58.381Z,12.14
2022-09-22T07:59:26.570Z,12.33
2022-09-22T08:01:54.391Z,12.81
2022-09-22T08:04:23.734Z,12.70
2022-09-22T08:06:54.404Z,11.90
2022-09-22T08:09:22.702Z,12.09
2022-09-22T08:11:50.339Z,13.10
2022-09-22T08:14:18.639Z,13.43
2022-09-22T08:16:46.515Z,13.25
2022-09-22T08:19:14.589Z,13.32
2022-09-22T08:21:49.149Z,12.84
2022-09-22T08:24:22.357Z,13.33
2022-09-22T08:26:52.559Z,14.83
2022-09-22T08:29:20.682Z,15.05
2022-09-22T08:31:49.535Z,14.16
2022-09-22T08:34:18.194Z,13.63
2022-09-22T08:36:48.730Z,13.37
2022-09-22T08:39:17.755Z,13.67
2022-09-22T08:41:56.319Z,14.41
2022-09-22T08:44:49.497Z,14.39
2022-09-22T08:47:39.528Z,13.87
2022-09-22T08:50:37.997Z,15.22
2022-09-22T08:53:08.981Z,14.61
2022-09-22T08:55:37.850Z,15.24
2022-09-22T08:58:13.995Z,15.94
2022-09-22T09:00:46.496Z,16.18
2022-09-22T09:03:24.010Z,15.58
2022-09-22T09:05:51.616Z,15.65
2022-09-22T09:08:22.375Z,15.97
2022-09-22T09:10:59.431Z,16.36
2022-09-22T09:13:54.199Z,15.54
2022-09-22T09:16:38.814Z,15.75
2022-09-22T09:19:31.911Z,16.12
2022-09-22T09:22:04.517Z,15.67
2022-09-22T09:27:26.509Z,17.74
2022-09-22T09:30:03.165Z,18.02
2022-09-22T09:32:34.533Z,17.12
2022-09-22T09:35:02.813Z,16.03
2022-09-22T09:37:30.667Z,16.26
2022-09-22T09:40:01.783Z,17.37
2022-09-22T09:42:33.180Z,17.46
2022-09-22T09:45:02.853Z,17.07
2022-09-22T09:47:47.712Z,16.77
2022-09-22T09:50:15.831Z,16.20
2022-09-22T09:52:44.954Z,17.95
2022-09-22T09:55:27.039Z,16.12
2022-09-22T09:58:11.971Z,16.67
2022-09-22T10:00:57.121Z,16.73
2022-09-22T10:03:27.938Z,16.62
2022-09-22T10:06:00.214Z,16.52
2022-09-22T10:08:28.632Z,16.64
2022-09-22T10:11:01.978Z,16.05
2022-09-22T10:13:35.772Z,16.04
2022-09-22T10:16:24.264Z,15.65
2022-09-22T10:19:21.106Z,16.69
2022-09-22T10:21:49.020Z,15.58
2022-09-22T10:24:29.038Z,17.02
2022-09-22T10:26:57.311Z,17.76
2022-09-22T10:29:25.828Z,18.13
2022-09-22T10:31:59.718Z,18.68
2022-09-22T10:34:34.869Z,18.94
2022-09-22T10:37:07.389Z,19.59
2022-09-22T10:39:43.422Z,20.41
2022-09-22T10:42:37.986Z,19.97
2022-09-22T10:45:07.230Z,20.41
2022-09-22T10:47:42.761Z,21.04
2022-09-22T10:50:31.944Z,19.20
2022-09-22T10:53:09.846Z,19.01
2022-09-22T10:55:56.092Z,20.02
2022-09-22T10:58:31.014Z,18.68
2022-09-22T11:01:13.068Z,19.55
2022-09-22T11:03:47.426Z,18.91
2022-09-22T11:06:42.943Z,19.43
2022-09-22T11:09:56.906Z,18.59
2022-09-22T11:12:51.299Z,18.66
2022-09-22T11:15:27.738Z,20.01
2022-09-22T11:18:04.532Z,20.00
2022-09-22T11:21:27.462Z,19.70
2022-09-22T11:24:14.770Z,18.93
2022-09-22T11:26:54.462Z,18.96
2022-09-22T11:29:49.123Z,18.34
2022-09-22T11:32:41.935Z,18.23
2022-09-22T11:35:25.247Z,19.56
2022-09-22T11:38:04.793Z,19.57
2022-09-22T11:43:53.473Z,20.40
2022-09-22T11:46:35.751Z,20.07
2022-09-22T11:49:22.018Z,19.13
2022-09-22T11:52:01.992Z,20.07
2022-09-22T11:54:54.364Z,20.31
2022-09-22T11:57:24.923Z,20.35
2022-09-22T12:00:18.892Z,20.96
2022-09-22T12:02:55.367Z,21.01
2022-09-22T12:05:42.168Z,20.83
2022-09-22T12:08:24.646Z,20.89
2022-09-22T12:10:52.837Z,21.18
2022-09-22T12:13:28.529Z,20.51
2022-09-22T12:16:31.957Z,20.54
2022-09-22T12:19:05.246Z,20.20
2022-09-22T12:21:46.360Z,20.48
2022-09-22T12:24:14.115Z,20.60
2022-09-22T12:26:46.315Z,20.47
2022-09-22T12:29:14.342Z,20.40
2022-09-22T12:31:50.171Z,20.26
2022-09-22T12:34:20.745Z,20.26
2022-09-22T12:36:50.610Z,20.33
2022-09-22T12:39:27.141Z,20.15
2022-09-22T12:42:00.331Z,20.23
2022-09-22T12:44:46.914Z,19.88
2022-09-22T12:47:21.443Z,19.78
2022-09-22T12:49:56.569Z,20.10
2022-09-22T12:52:42.357Z,20.33
2022-09-22T12:55:22.852Z,20.18
2022-09-22T12:58:10.068Z,19.97
2022-09-22T13:00:40.990Z,19.64
2022-09-22T13:03:26.682Z,20.12
2022-09-22T13:05:55.739Z,20.03
2022-09-22T13:08:25.801Z,20.18
2022-09-22T13:10:57.847Z,20.27
2022-09-22T13:13:36.749Z,19.95
2022-09-22T13:16:14.518Z,19.48
2022-09-22T13:18:43.575Z,19.45
2022-09-22T13:21:13.753Z,19.47
2022-09-22T13:23:59.072Z,20.04
2022-09-22T13:26:40.840Z,19.73
2022-09-22T13:29:21.271Z,19.48
2022-09-22T13:31:54.401Z,19.63
2022-09-22T13:34:32.297Z,19.66
2022-09-22T13:37:01.033Z,20.00
2022-09-22T13:39:34.540Z,20.11
2022-09-22T13:42:08.971Z,19.76
2022-09-22T13:44:39.930Z,19.95
2022-09-22T13:47:13.711Z,20.14
2022-09-22T13:49:43.943Z,20.05
2022-09-22T13:52:19.352Z,19.80
2022-09-22T13:54:50.306Z,19.75
2022-09-22T13:57:24.415Z,19.97
2022-09-22T13:59:52.597Z,20.25
2022-09-22T14:02:27.001Z,20.23
2022-09-22T14:05:02.099Z,20.15
2022-09-22T14:07:30.803Z,20.18
2022-09-22T14:09:59.571Z,19.94
2022-09-22T14:12:30.302Z,20.31
2022-09-22T14:15:32.796Z,20.17
2022-09-22T14:18:01.653Z,20.37
2022-09-22T14:20:29.395Z,19.86
2022-09-22T14:22:56.899Z,20.26
2022-09-22T14:25:24.305Z,20.22
2022-09-22T14:27:59.698Z,20.09
2022-09-22T14:30:31.140Z,19.86
2022-09-22T14:33:02.151Z,19.97
2022-09-22T14:35:32.070Z,20.04
2022-09-22T14:38:13.505Z,19.98
2022-09-22T14:40:54.789Z,19.95
2022-09-22T14:43:22.604Z,19.91
2022-09-22T14:46:38.793Z,19.60
2022-09-22T14:49:34.515Z,19.35
2022-09-22T14:52:01.900Z,18.50
2022-09-22T14:54:31.020Z,18.82
2022-09-22T14:57:07.462Z,19.20
2022-09-22T14:59:56.492Z,19.06
2022-09-22T15:02:33.405Z,18.95
2022-09-22T15:05:04.973Z,18.19
2022-09-22T15:07:37.058Z,17.93
2022-09-22T15:10:19.879Z,18.34
2022-09-22T15:12:49.805Z,19.17
2022-09-22T15:15:31.867Z,19.56
2022-09-22T15:18:18.862Z,17.97
2022-09-22T15:20:50.050Z,17.33
2022-09-22T15:23:27.311Z,16.75
2022-09-22T15:25:55.759Z,16.17
2022-09-22T15:28:24.669Z,16.32
2022-09-22T15:30:53.028Z,16.61
2022-09-22T15:33:21.632Z,17.24
2022-09-22T15:36:13.004Z,17.34
2022-09-22T15:38:41.509Z,17.10
2022-09-22T15:41:14.212Z,16.53
2022-09-22T15:43:42.835Z,16.71
2022-09-22T15:46:34.118Z,17.37
2022-09-22T15:49:24.989Z,16.77
2022-09-22T15:51:52.970Z,16.19
2022-09-22T15:54:22.368Z,16.43
2022-09-22T15:56:52.616Z,15.58
2022-09-22T15:59:28.005Z,15.18
2022-09-22T16:01:57.128Z,16.04
2022-09-22T16:04:31.451Z,16.28
2022-09-22T16:07:02.394Z,16.26
2022-09-22T16:09:30.586Z,16.45
2022-09-22T16:11:57.966Z,15.83
2022-09-22T16:14:25.473Z,16.35
2022-09-22T16:16:53.148Z,16.15
2022-09-22T16:19:20.557Z,16.07
2022-09-22T16:21:52.832Z,15.87
2022-09-22T16:24:22.680Z,16.41
2022-09-22T16:26:51.816Z,16.29
2022-09-22T16:29:19.684Z,16.32
2022-09-22T16:31:47.100Z,15.64
2022-09-22T16:34:14.567Z,15.72
2022-09-22T16:36:43.204Z,16.13
2022-09-22T16:39:10.642Z,16.16
2022-09-22T16:41:44.139Z,16.52
2022-09-22T16:44:11.972Z,15.97
2022-09-22T16:46:39.436Z,15.89
2022-09-22T16:49:12.782Z,15.56
2022-09-22T16:51:42.429Z,15.65
2022-09-22T16:54:13.910Z,15.05
2022-09-22T16:56:45.356Z,14.74
2022-09-22T16:59:16.251Z,14.43
2022-09-22T17:01:44.153Z,15.31
2022-09-22T17:04:13.103Z,14.48
2022-09-22T17:06:41.707Z,14.46
2022-09-22T17:09:10.409Z,13.95
2022-09-22T17:11:40.222Z,13.95
2022-09-22T17:14:12.606Z,14.13
2022-09-22T17:16:45.658Z,13.78
2022-09-22T17:19:19.417Z,13.43
2022-09-22T17:21:48.651Z,13.46
2022-09-22T17:24:16.153Z,13.66
2022-09-22T17:26:54.896Z,13.40
2022-09-22T17:29:25.459Z,12.92
2022-09-22T17:31:57.382Z,13.45
2022-09-22T17:34:29.205Z,13.71
2022-09-22T17:36:57.298Z,13.81
2022-09-22T17:39:26.385Z,13.91
2022-09-22T17:41:55.109Z,13.77
2022-09-22T17:44:23.170Z,13.65
2022-09-22T17:47:11.298Z,13.61
2022-09-22T17:49:58.362Z,13.38
2022-09-22T17:52:31.818Z,12.94
2022-09-22T17:55:08.067Z,12.24
2022-09-22T17:57:38.435Z,12.23
2022-09-22T18:00:08.729Z,12.53
2022-09-22T18:02:37.005Z,12.55
2022-09-22T18:05:09.985Z,12.89
2022-09-22T18:07:40.165Z,12.67
2022-09-22T18:10:09.768Z,12.84
2022-09-22T18:12:37.226Z,12.51
2022-09-22T18:15:05.559Z,12.77
2022-09-22T18:17:43.920Z,12.44
2022-09-22T18:20:14.112Z,12.29
2022-09-22T18:22:48.378Z,11.84
2022-09-22T18:25:19.376Z,11.91
2022-09-22T18:27:48.491Z,12.55
2022-09-22T18:30:19.117Z,13.41
2022-09-22T18:32:47.647Z,12.51
2022-09-22T18:35:15.231Z,13.33
2022-09-22T18:37:43.367Z,12.99
2022-09-22T18:40:12.550Z,13.36
2022-09-22T18:42:43.714Z,13.20
2022-09-22T18:45:12.715Z,13.07
2022-09-22T18:47:42.032Z,11.57
2022-09-22T18:50:11.001Z,11.14
2022-09-22T18:52:42.751Z,11.06
2022-09-22T18:55:11.651Z,11.80
2022-09-22T18:57:39.366Z,12.89
2022-09-22T19:00:07.491Z,11.35
2022-09-22T19:02:35.228Z,11.36
2022-09-22T19:05:03.100Z,11.05
2022-09-22T19:07:43.872Z,11.30
2022-09-22T19:10:14.838Z,10.57
2022-09-22T19:12:42.702Z,11.09
2022-09-22T19:15:16.756Z,10.88
2022-09-22T19:17:47.016Z,10.84
2022-09-22T19:20:21.255Z,11.18
2022-09-22T19:22:50.360Z,11.12
2022-09-22T19:25:18.819Z,11.56
2022-09-22T19:27:46.272Z,11.75
2022-09-22T19:30:14.073Z,10.56
2022-09-22T19:32:41.462Z,10.86
2022-09-22T19:35:09.790Z,10.51
2022-09-22T19:37:37.471Z,10.43
2022-09-22T19:40:06.715Z,11.52
2022-09-22T19:42:40.089Z,10.80
2022-09-22T19:45:09.034Z,10.81
2022-09-22T19:47:37.025Z,11.28
2022-09-22T19:50:08.141Z,12.27
2022-09-22T19:52:36.645Z,12.00
2022-09-22T19:55:05.857Z,12.56
2022-09-22T19:57:33.231Z,11.66
2022-09-22T20:00:01.027Z,10.54
2022-09-22T20:02:28.440Z,10.93
2022-09-22T20:04:56.110Z,10.47
2022-09-22T20:07:27.762Z,10.66
2022-09-22T20:09:56.477Z,10.14
2022-09-22T20:12:24.403Z,10.46
2022-09-22T20:14:51.811Z,10.14
2022-09-22T20:17:19.173Z,10.33
2022-09-22T20:19:46.849Z,9.79
2022-09-22T20:22:20.286Z,10.90
2022-09-22T20:24:54.025Z,9.55
2022-09-22T20:27:26.429Z,10.52
2022-09-22T20:29:57.331Z,9.65
2022-09-22T20:32:26.246Z,10.42
2022-09-22T20:34:55.419Z,10.70
2022-09-22T20:37:23.170Z,9.42
2022-09-22T20:39:50.893Z,9.13
2022-09-22T20:42:18.895Z,10.11
2022-09-22T20:44:47.037Z,9.63
2022-09-22T20:47:18.731Z,8.93
2022-09-22T20:49:50.860Z,9.02
2022-09-22T20:52:20.237Z,10.02
2022-09-22T20:54:48.823Z,11.12
2022-09-22T20:57:16.826Z,10.32
2022-09-22T20:59:45.851Z,9.65
2022-09-22T21:02:14.819Z,9.77
2022-09-22T21:04:42.366Z,10.58
2022-09-22T21:07:11.452Z,9.63
2022-09-22T21:09:57.909Z,9.37
2022-09-22T21:12:30.756Z,9.01
2022-09-22T21:14:59.089Z,9.23
2022-09-22T21:17:27.842Z,9.28
2022-09-22T21:19:57.666Z,9.21
2022-09-22T21:22:28.071Z,9.22
2022-09-22T21:24:56.415Z,9.62
2022-09-22T21:27:25.124Z,9.97
2022-09-22T21:29:54.022Z,10.20
2022-09-22T21:32:21.358Z,10.77
2022-09-22T21:34:48.992Z,11.34
2022-09-22T21:37:16.636Z,11.69
2022-09-22T21:39:43.955Z,10.87
2022-09-22T21:42:11.279Z,9.78
2022-09-22T21:44:39.244Z,9.41
2022-09-22T21:47:06.839Z,9.33
2022-09-22T21:49:34.179Z,9.59
2022-09-22T21:52:01.838Z,9.08
2022-09-22T21:54:31.157Z,10.19
2022-09-22T21:56:58.500Z,9.84
2022-09-22T21:59:26.226Z,9.39
2022-09-22T22:01:53.632Z,10.11
2022-09-22T22:04:21.859Z,10.94
2022-09-22T22:06:49.291Z,9.87
2022-09-22T22:09:22.056Z,8.91
2022-09-22T22:11:55.595Z,8.59
2022-09-22T22:14:26.431Z,8.63
2022-09-22T22:16:55.099Z,8.77
2022-09-22T22:19:25.644Z,9.00
2022-09-22T22:21:53.913Z,9.32
2022-09-22T22:24:28.807Z,9.23
2022-09-22T22:27:01.351Z,8.79
2022-09-22T22:29:34.696Z,8.94
2022-09-22T22:32:04.144Z,9.11
2022-09-22T22:34:31.727Z,8.51
2022-09-22T22:36:59.532Z,8.38
2022-09-22T22:39:26.874Z,8.44
2022-09-22T22:41:57.303Z,8.55
2022-09-22T22:44:24.642Z,8.80
2022-09-22T22:46:51.965Z,9.21
2022-09-22T22:49:19.818Z,9.12
2022-09-22T22:51:49.151Z,9.24
2022-09-22T22:54:16.688Z,9.04
2022-09-22T22:56:46.829Z,9.00
2022-09-22T22:59:18.164Z,9.03
2022-09-22T23:01:45.837Z,9.07
2022-09-22T23:04:13.293Z,9.22
2022-09-22T23:06:44.450Z,8.72
2022-09-22T23:09:15.024Z,8.51
2022-09-22T23:11:43.269Z,8.59
2022-09-22T23:14:12.017Z,8.48
2022-09-22T23:16:44.933Z,8.33
2022-09-22T23:19:14.295Z,8.41
2022-09-22T23:21:42.089Z,8.21
2022-09-22T23:24:09.440Z,8.14
2022-09-22T23:26:37.613Z,8.29
2022-09-22T23:29:06.071Z,8.14
2022-09-22T23:31:33.524Z,7.87
2022-09-22T23:34:01.203Z,7.95
2022-09-22T23:36:29.319Z,8.07
2022-09-22T23:39:03.475Z,7.95
2022-09-22T23:41:33.140Z,8.16
2022-09-22T23:44:00.724Z,7.81
2022-09-22T23:46:28.140Z,7.98
2022-09-22T23:48:55.934Z,7.91
2022-09-22T23:51:24.118Z,8.14
2022-09-22T23:53:51.831Z,8.30
2022-09-22T23:56:19.711Z,7.91
2022-09-22T23:58:47.605Z,7.58
